createdAt,value
2018-12-25T00:08:27.242Z,3.70
2018-12-25T00:16:51.702Z,3.72
2018-12-25T00:19:22.032Z,3.75
2018-12-25T00:21:52.369Z,3.77
2018-12-25T00:24:42.938Z,3.75
2018-12-25T00:27:13.358Z,3.80
2018-12-25T00:30:22.629Z,3.83
2018-12-25T00:32:52.909Z,3.85
2018-12-25T00:35:23.690Z,3.85
2018-12-25T00:37:54.179Z,3.86
2018-12-25T00:40:24.541Z,3.84
2018-12-25T00:43:33.869Z,3.93
2018-12-25T00:46:04.277Z,3.91
2018-12-25T00:49:14.917Z,3.94
2018-12-25T00:51:45.498Z,3.93
2018-12-25T01:00:07.508Z,3.92
2018-12-25T01:02:38.034Z,3.92
2018-12-25T01:08:34.133Z,3.93
2018-12-25T01:11:04.607Z,4.01
2018-12-25T01:14:13.824Z,4.00
2018-12-25T01:17:21.584Z,4.04
2018-12-25T01:20:30.726Z,4.08
2018-12-25T01:23:01.036Z,4.13
2018-12-25T01:25:31.338Z,4.11
2018-12-25T01:28:01.830Z,4.10
2018-12-25T01:30:32.174Z,4.06
2018-12-25T01:33:02.457Z,4.13
2018-12-25T01:35:32.891Z,4.10
2018-12-25T01:40:58.849Z,4.00
2018-12-25T01:43:29.154Z,3.97
2018-12-25T01:45:59.434Z,3.93
2018-12-25T01:48:29.830Z,3.91
2018-12-25T01:51:00.206Z,3.92
2018-12-25T01:56:20.314Z,3.98
2018-12-25T01:58:50.592Z,4.03
2018-12-25T02:01:39.725Z,4.00
2018-12-25T02:04:30.184Z,3.97
2018-12-25T02:07:00.572Z,3.98
2018-12-25T02:12:17.351Z,3.97
2018-12-25T02:14:47.635Z,3.94
2018-12-25T02:17:18.010Z,3.92
2018-12-25T02:19:48.356Z,3.94
2018-12-25T02:22:37.338Z,3.93
2018-12-25T02:25:07.843Z,3.87
2018-12-25T02:30:36.830Z,3.87
2018-12-25T02:33:07.099Z,3.83
2018-12-25T02:35:37.383Z,3.82
2018-12-25T02:38:07.843Z,3.85
2018-12-25T02:40:38.119Z,3.78
2018-12-25T02:43:08.453Z,3.70
2018-12-25T02:45:38.762Z,3.65
2018-12-25T02:48:09.014Z,3.57
2018-12-25T02:50:39.349Z,3.45
2018-12-25T02:53:09.750Z,3.40
2018-12-25T02:55:40.100Z,3.37
2018-12-25T02:58:10.404Z,3.39
2018-12-25T03:00:40.805Z,3.39
2018-12-25T03:03:11.171Z,3.37
2018-12-25T03:09:08.947Z,3.39
2018-12-25T03:11:50.409Z,3.43
2018-12-25T03:14:20.958Z,3.43
2018-12-25T03:16:51.266Z,3.45
2018-12-25T03:19:21.527Z,3.45
2018-12-25T03:21:51.934Z,3.39
2018-12-25T03:24:22.314Z,3.32
2018-12-25T03:26:52.619Z,3.35
2018-12-25T03:29:22.971Z,3.33
2018-12-25T03:32:12.037Z,3.42
2018-12-25T03:34:42.385Z,3.35
2018-12-25T03:40:03.533Z,3.36
2018-12-25T03:42:34.043Z,3.35
2018-12-25T03:45:04.437Z,3.41
2018-12-25T03:47:34.893Z,3.37
2018-12-25T03:50:10.945Z,3.30
2018-12-25T03:52:37.656Z,3.26
2018-12-25T03:55:08.039Z,3.33
2018-12-25T03:57:38.813Z,3.24
2018-12-25T04:00:27.876Z,3.24
2018-12-25T04:06:12.724Z,3.23
2018-12-25T04:08:43.043Z,3.15
2018-12-25T04:11:13.484Z,3.16
2018-12-25T04:13:43.847Z,3.11
2018-12-25T04:16:32.939Z,3.02
2018-12-25T04:19:03.305Z,3.00
2018-12-25T04:21:33.598Z,3.04
2018-12-25T04:27:00.166Z,3.02
2018-12-25T04:29:30.504Z,3.08
2018-12-25T04:32:00.815Z,3.09
2018-12-25T04:34:31.159Z,3.11
2018-12-25T04:42:45.595Z,3.17
2018-12-25T04:45:15.915Z,3.18
2018-12-25T04:47:46.227Z,3.18
2018-12-25T04:50:16.497Z,3.13
2018-12-25T04:53:05.692Z,3.16
2018-12-25T04:55:35.992Z,3.12
2018-12-25T04:58:26.367Z,3.16
2018-12-25T05:00:56.646Z,3.12
2018-12-25T05:03:47.282Z,3.12
2018-12-25T05:06:17.561Z,3.11
2018-12-25T05:08:47.838Z,3.09
2018-12-25T05:11:18.677Z,3.05
2018-12-25T05:16:55.178Z,3.04
2018-12-25T05:25:12.773Z,3.02
2018-12-25T05:34:03.078Z,3.05
2018-12-25T05:36:33.509Z,3.01
2018-12-25T05:39:04.322Z,2.94
2018-12-25T05:41:34.860Z,2.97
2018-12-25T05:44:05.244Z,3.00
2018-12-25T05:46:35.692Z,3.00
2018-12-25T05:49:06.138Z,3.07
2018-12-25T05:51:37.035Z,3.09
2018-12-25T05:54:07.437Z,3.12
2018-12-25T05:56:38.003Z,3.11
2018-12-25T05:59:08.436Z,3.05
2018-12-25T06:01:38.731Z,3.03
2018-12-25T06:04:09.101Z,3.09
2018-12-25T06:06:39.724Z,3.09
2018-12-25T06:09:10.106Z,3.10
2018-12-25T06:11:40.452Z,3.19
2018-12-25T06:14:10.736Z,3.16
2018-12-25T06:16:41.549Z,3.13
2018-12-25T06:19:11.968Z,3.14
2018-12-25T06:21:42.340Z,3.13
2018-12-25T06:24:12.731Z,3.11
2018-12-25T06:26:43.140Z,3.07
2018-12-25T06:29:13.424Z,3.02
2018-12-25T06:31:43.731Z,3.05
2018-12-25T06:34:14.151Z,3.05
2018-12-25T06:36:44.459Z,3.03
2018-12-25T06:39:14.835Z,3.03
2018-12-25T06:41:45.341Z,3.02
2018-12-25T06:44:15.810Z,2.99
2018-12-25T06:46:46.326Z,2.97
2018-12-25T06:49:16.811Z,2.94
2018-12-25T06:51:47.325Z,2.94
2018-12-25T06:54:17.711Z,2.95
2018-12-25T06:56:48.249Z,2.87
2018-12-25T06:59:18.656Z,2.81
2018-12-25T07:01:49.038Z,2.78
2018-12-25T07:04:19.544Z,2.77
2018-12-25T07:06:50.608Z,2.62
2018-12-25T07:18:11.193Z,2.57
2018-12-25T07:26:35.915Z,2.60
2018-12-25T07:32:17.298Z,2.65
2018-12-25T07:34:47.632Z,2.57
2018-12-25T07:37:36.814Z,2.52
2018-12-25T07:43:38.860Z,2.56
2018-12-25T07:49:23.337Z,2.56
2018-12-25T07:52:13.811Z,2.62
2018-12-25T07:54:44.176Z,2.68
2018-12-25T07:57:14.556Z,2.68
2018-12-25T07:59:44.753Z,2.66
2018-12-25T08:02:15.283Z,2.63
2018-12-25T08:07:41.374Z,2.59
2018-12-25T08:13:01.828Z,2.63
2018-12-25T08:15:32.125Z,2.62
2018-12-25T08:20:58.794Z,2.73
2018-12-25T08:23:29.064Z,2.78
2018-12-25T08:25:59.438Z,2.77
2018-12-25T08:28:29.824Z,2.74
2018-12-25T08:31:00.144Z,2.73
2018-12-25T08:33:30.424Z,2.78
2018-12-25T08:36:00.825Z,2.73
2018-12-25T08:38:31.129Z,2.67
2018-12-25T08:41:01.489Z,2.70
2018-12-25T08:43:31.795Z,2.78
2018-12-25T08:46:02.044Z,2.87
2018-12-25T08:48:32.708Z,2.76
2018-12-25T08:51:03.182Z,2.78
2018-12-25T08:53:33.547Z,2.66
2018-12-25T08:56:06.686Z,2.67
2018-12-25T08:58:37.015Z,2.66
2018-12-25T09:01:07.779Z,2.67
2018-12-25T09:03:38.176Z,2.65
2018-12-25T09:06:08.557Z,2.64
2018-12-25T09:08:39.261Z,2.65
2018-12-25T09:11:09.518Z,2.64
2018-12-25T09:13:39.873Z,2.68
2018-12-25T09:16:28.953Z,2.67
2018-12-25T09:19:10.670Z,2.65
2018-12-25T09:21:46.215Z,2.56
2018-12-25T09:24:13.195Z,2.60
2018-12-25T09:26:43.587Z,2.66
2018-12-25T09:29:13.847Z,2.67
2018-12-25T09:31:44.102Z,2.60
2018-12-25T09:34:14.467Z,2.63
2018-12-25T09:36:44.785Z,2.66
2018-12-25T09:39:15.069Z,2.88
2018-12-25T09:41:45.435Z,2.95
2018-12-25T09:44:15.781Z,2.95
2018-12-25T09:53:03.620Z,2.68
2018-12-25T09:55:34.513Z,2.69
2018-12-25T09:58:04.822Z,2.76
2018-12-25T10:00:35.211Z,2.73
2018-12-25T10:06:15.446Z,2.83
2018-12-25T10:08:45.755Z,2.96
2018-12-25T10:11:16.778Z,3.11
2018-12-25T10:13:47.122Z,3.26
2018-12-25T10:16:36.202Z,3.37
2018-12-25T10:19:16.804Z,3.43
2018-12-25T10:21:47.172Z,3.44
2018-12-25T10:24:36.614Z,3.44
2018-12-25T10:27:07.030Z,3.42
2018-12-25T10:29:37.372Z,3.38
2018-12-25T10:35:10.033Z,3.34
2018-12-25T10:37:40.569Z,3.39
2018-12-25T10:40:12.603Z,3.48
2018-12-25T10:45:41.337Z,3.51
2018-12-25T10:48:11.618Z,3.54
2018-12-25T10:50:41.978Z,3.60
2018-12-25T10:53:12.342Z,3.61
2018-12-25T10:55:42.661Z,3.62
2018-12-25T10:58:13.268Z,3.34
2018-12-25T11:04:03.740Z,3.32
2018-12-25T11:06:54.345Z,3.37
2018-12-25T11:09:24.660Z,3.39
2018-12-25T11:11:54.961Z,3.45
2018-12-25T11:14:25.267Z,3.54
2018-12-25T11:16:55.962Z,3.61
2018-12-25T11:19:37.554Z,3.70
2018-12-25T11:22:08.014Z,3.79
2018-12-25T11:24:38.306Z,3.61
2018-12-25T11:27:08.574Z,3.70
2018-12-25T11:29:38.866Z,3.47
2018-12-25T11:32:09.155Z,3.53
2018-12-25T11:34:39.537Z,3.59
2018-12-25T11:37:09.872Z,3.79
2018-12-25T11:39:40.140Z,3.81
2018-12-25T11:44:46.072Z,3.90
2018-12-25T11:47:16.397Z,3.83
2018-12-25T11:49:46.761Z,3.93
2018-12-25T11:52:17.091Z,3.91
2018-12-25T11:54:47.532Z,4.16
2018-12-25T11:57:17.824Z,4.41
2018-12-25T11:59:48.282Z,4.49
2018-12-25T12:02:18.684Z,4.74
2018-12-25T12:04:48.992Z,4.93
2018-12-25T12:10:14.794Z,5.00
2018-12-25T12:12:45.106Z,4.95
2018-12-25T12:15:34.247Z,4.98
2018-12-25T12:18:05.028Z,4.99
2018-12-25T12:20:35.309Z,4.97
2018-12-25T12:23:05.733Z,4.87
2018-12-25T12:25:36.007Z,4.89
2018-12-25T12:28:06.431Z,4.82
2018-12-25T12:30:36.790Z,4.82
2018-12-25T12:33:07.087Z,4.69
2018-12-25T12:35:37.824Z,4.64
2018-12-25T12:41:12.850Z,4.40
2018-12-25T12:43:43.318Z,4.31
2018-12-25T12:46:13.760Z,4.15
2018-12-25T12:48:44.335Z,4.04
2018-12-25T12:51:14.892Z,4.02
2018-12-25T12:53:45.258Z,3.88
2018-12-25T12:56:15.765Z,3.73
2018-12-25T12:58:46.264Z,3.79
2018-12-25T13:01:16.628Z,3.74
2018-12-25T13:03:47.130Z,3.76
2018-12-25T13:06:17.600Z,3.81
2018-12-25T13:08:48.019Z,3.73
2018-12-25T13:11:18.538Z,3.70
2018-12-25T13:13:48.930Z,3.61
2018-12-25T13:16:19.332Z,3.68
2018-12-25T13:18:49.973Z,3.66
2018-12-25T13:21:20.752Z,3.61
2018-12-25T13:23:51.165Z,3.61
2018-12-25T13:26:22.099Z,3.58
2018-12-25T13:28:52.552Z,3.64
2018-12-25T13:31:23.045Z,3.50
2018-12-25T13:33:53.519Z,3.60
2018-12-25T13:36:23.998Z,3.54
2018-12-25T13:38:54.450Z,3.44
2018-12-25T13:41:25.643Z,3.29
2018-12-25T13:43:56.009Z,3.22
2018-12-25T13:46:26.451Z,3.15
2018-12-25T13:48:57.004Z,3.17
2018-12-25T13:51:27.468Z,3.19
2018-12-25T13:53:57.817Z,3.24
2018-12-25T13:56:28.330Z,3.19
2018-12-25T13:58:58.756Z,3.24
2018-12-25T14:01:29.071Z,3.18
2018-12-25T14:03:59.594Z,3.21
2018-12-25T14:06:29.962Z,3.19
2018-12-25T14:09:00.307Z,3.20
2018-12-25T14:11:31.094Z,3.11
2018-12-25T14:14:01.522Z,3.08
2018-12-25T14:16:31.860Z,3.06
2018-12-25T14:19:02.375Z,3.11
2018-12-25T14:21:32.762Z,3.04
2018-12-25T14:24:03.149Z,3.00
2018-12-25T14:26:33.776Z,2.96
2018-12-25T14:29:04.140Z,2.92
2018-12-25T14:31:34.490Z,2.93
2018-12-25T14:34:04.931Z,2.88
2018-12-25T14:36:35.334Z,2.80
2018-12-25T14:39:25.884Z,2.80
2018-12-25T14:41:56.214Z,2.72
2018-12-25T14:44:26.502Z,2.79
2018-12-25T14:49:51.489Z,2.65
2018-12-25T14:52:21.840Z,2.65
2018-12-25T14:54:53.725Z,2.63
2018-12-25T14:57:24.710Z,2.58
2018-12-25T14:59:54.987Z,2.65
2018-12-25T15:02:25.307Z,2.63
2018-12-25T15:07:31.205Z,2.57
2018-12-25T15:10:01.629Z,2.55
2018-12-25T15:12:31.958Z,2.48
2018-12-25T15:15:21.097Z,2.43
2018-12-25T15:17:51.370Z,2.36
2018-12-25T15:20:21.732Z,2.34
2018-12-25T15:22:57.418Z,2.35
2018-12-25T15:28:36.979Z,2.27
2018-12-25T15:31:46.119Z,2.30
2018-12-25T15:34:29.142Z,2.28
2018-12-25T15:36:59.440Z,2.23
2018-12-25T15:46:14.630Z,2.16
2018-12-25T15:54:18.459Z,2.41
2018-12-25T15:56:48.786Z,2.46
2018-12-25T15:59:19.038Z,2.59
2018-12-25T16:02:06.763Z,2.59
2018-12-25T16:07:58.178Z,2.69
2018-12-25T16:13:37.777Z,2.69
2018-12-25T16:16:08.057Z,2.67
2018-12-25T16:18:57.189Z,2.74
2018-12-25T16:21:27.536Z,2.67
2018-12-25T16:24:09.216Z,2.70
2018-12-25T16:29:24.943Z,2.63
2018-12-25T16:31:55.204Z,2.62
2018-12-25T16:37:20.539Z,2.55
2018-12-25T16:39:50.969Z,2.54
2018-12-25T16:42:21.264Z,2.48
2018-12-25T16:44:51.587Z,2.44
2018-12-25T16:47:22.024Z,2.40
2018-12-25T16:50:12.344Z,2.36
2018-12-25T16:52:42.819Z,2.39
2018-12-25T16:58:08.747Z,2.41
2018-12-25T17:00:39.031Z,2.33
2018-12-25T17:08:42.943Z,2.36
2018-12-25T17:11:13.286Z,2.33
2018-12-25T17:13:43.445Z,2.37
2018-12-25T17:16:30.882Z,2.33
2018-12-25T17:19:01.392Z,2.35
2018-12-25T17:21:31.777Z,2.35
2018-12-25T17:24:02.609Z,2.32
2018-12-25T17:26:33.191Z,2.44
2018-12-25T17:29:03.675Z,2.46
2018-12-25T17:31:34.096Z,2.59
2018-12-25T17:34:04.475Z,2.69
2018-12-25T17:36:34.845Z,2.71
2018-12-25T17:39:25.979Z,2.67
2018-12-25T17:41:56.273Z,2.71
2018-12-25T17:44:26.609Z,2.73
2018-12-25T17:49:32.477Z,2.80
2018-12-25T17:52:02.781Z,2.80
2018-12-25T17:54:33.217Z,2.74
2018-12-25T17:57:22.342Z,2.79
2018-12-25T18:00:11.350Z,2.76
2018-12-25T18:02:41.762Z,2.66
2018-12-25T18:08:26.186Z,2.54
2018-12-25T18:10:56.495Z,2.47
2018-12-25T18:13:26.768Z,2.41
2018-12-25T18:15:57.202Z,2.34
2018-12-25T18:19:06.266Z,2.35
2018-12-25T18:21:47.545Z,2.33
2018-12-25T18:24:19.355Z,2.22
2018-12-25T18:26:50.119Z,2.20
2018-12-25T18:29:20.522Z,2.20
2018-12-25T18:35:00.170Z,2.12
2018-12-25T18:37:31.135Z,2.13
2018-12-25T18:42:50.758Z,2.09
2018-12-25T18:45:21.088Z,2.16
2018-12-25T18:51:12.555Z,2.02
2018-12-25T18:56:57.354Z,2.00
2018-12-25T18:59:47.850Z,2.01
2018-12-25T19:02:18.314Z,1.94
2018-12-25T19:04:48.616Z,1.92
2018-12-25T19:07:18.917Z,1.95
2018-12-25T19:09:49.256Z,1.91
2018-12-25T19:12:19.523Z,1.89
2018-12-25T19:15:27.267Z,1.91
2018-12-25T19:24:02.884Z,1.82
2018-12-25T19:29:29.236Z,1.86
2018-12-25T19:34:55.194Z,1.91
2018-12-25T19:37:25.438Z,1.85
2018-12-25T19:39:55.868Z,1.87
2018-12-25T19:51:26.013Z,1.82
2018-12-25T19:53:56.409Z,1.66
2018-12-25T19:59:27.200Z,1.59
2018-12-25T20:01:57.485Z,1.64
2018-12-25T20:07:56.993Z,1.62
2018-12-25T20:10:49.436Z,1.59
2018-12-25T20:13:57.242Z,1.51
2018-12-25T20:17:04.943Z,1.49
2018-12-25T20:20:12.704Z,1.53
2018-12-25T20:23:18.474Z,1.55
2018-12-25T20:26:26.513Z,1.52
2018-12-25T20:29:34.193Z,1.52
2018-12-25T20:32:41.988Z,1.46
2018-12-25T20:39:11.661Z,1.42
2018-12-25T20:41:53.152Z,1.43
2018-12-25T20:45:01.366Z,1.38
2018-12-25T20:48:09.093Z,1.39
2018-12-25T20:51:17.301Z,1.41
2018-12-25T20:54:25.215Z,1.38
2018-12-25T20:57:33.063Z,1.44
2018-12-25T21:00:40.897Z,1.43
2018-12-25T21:03:48.620Z,1.40
2018-12-25T21:06:56.365Z,1.37
2018-12-25T21:10:04.199Z,1.41
2018-12-25T21:12:56.045Z,1.26
2018-12-25T21:27:50.820Z,1.11
2018-12-25T21:33:16.218Z,1.08
2018-12-25T21:35:46.530Z,1.01
2018-12-25T21:38:16.862Z,1.02
2018-12-25T21:41:07.290Z,1.07
2018-12-25T21:43:57.649Z,1.10
2018-12-25T21:52:39.377Z,1.10
2018-12-25T21:55:18.359Z,1.08
2018-12-25T22:00:28.804Z,1.03
2018-12-25T22:02:59.190Z,1.06
2018-12-25T22:05:29.553Z,1.10
2018-12-25T22:07:59.928Z,1.14
2018-12-25T22:10:30.202Z,1.14
2018-12-25T22:13:00.507Z,1.15
2018-12-25T22:30:04.526Z,1.23
2018-12-25T22:36:00.966Z,1.24
2018-12-25T22:38:31.395Z,1.23
2018-12-25T22:41:01.684Z,1.23
2018-12-25T22:43:32.124Z,1.16
2018-12-25T22:51:53.742Z,1.06
2018-12-25T22:55:02.900Z,1.00
2018-12-25T22:58:12.094Z,0.94
2018-12-25T23:00:42.518Z,0.96
2018-12-25T23:03:12.778Z,0.97
2018-12-25T23:11:45.449Z,1.07
2018-12-25T23:23:11.883Z,1.22
2018-12-25T23:29:02.012Z,1.16
2018-12-25T23:34:34.408Z,1.10
2018-12-25T23:37:43.460Z,1.13
2018-12-25T23:40:32.811Z,1.12
2018-12-25T23:43:03.199Z,1.16
2018-12-25T23:45:33.482Z,1.07
2018-12-25T23:50:58.727Z,1.00
2018-12-25T23:53:29.167Z,1.00
2018-12-25T23:55:59.437Z,0.90
2018-12-25T23:58:48.583Z,0.81
